Aérodrome :
LOGIN :

S'inscrire | Disclaimer

   EN    FR    IT 

 










Légende :    VFR   VFR Marginal   IFR   IFR Intensif   IFR Très Intensif
Visi : 
Plafond : 
>= 8 km
>= 3000ft
5 à 8 km
1000 à 3000 ft
1500m à 5 km
500 à 1000 ft
800 à 1500m
200 à 500 ft
< 800m
< 200 ft
Symboles :   Orages  Brouillard  Fortes neiges  Fortes précipitations  Vent > 20 kt
SIGMETs :   Divers  Orages  Givrage  Turbulence  Onde Orograph.  Cendres Volcan.







- Altitude de l'aérodrome : 1906 ft
- Code IATA : INN


LOWI - Innsbruck

DERNIER METAR :
  • 181920Z VRB02KT 9999 FEW050 SCT100 18/13 Q1023 NOSIG

METARs EXPIRÉS :
  • 181850Z VRB02KT 9999 FEW050 BKN100 19/13 Q1023 NOSIG
  • 181820Z 13004KT 100V170 9999 FEW050 BKN100 20/13 Q1023 NOSIG
  • 181750Z 13003KT 100V180 9999 FEW050 BKN100 20/13 Q1023 NOSIG
  • 181720Z 11005KT 070V130 9999 FEW040 BKN080 20/12 Q1023 NOSIG
  • 181650Z 11005KT 070V150 9999 FEW040 BKN075 21/13 Q1023 NOSIG
  • 181620Z 10004KT 060V140 9999 FEW040 BKN070 21/12 Q1022 NOSIG

TAF TAF LOWI
Valide du 18 à 18h jusqu'au 19 à 18h UTC


181715Z 1818/1918 07005KT 9999 FEW030 BKN090 TX25/1915Z TN14/1903Z
BECMG 1818/1820 VRB02KT SCT070
BECMG 1908/1910 10010KT FEW070
Pas de NOTAMs connus pour ce terrain.



MET'MAP, la Météo Aéronautique d'un coup d'oeil ! - Copyright ORBIFLY Décembre 2007 - Disclaimer

ORBIFLY MET'MAP TEAM :

Programmation & Développement : Alexandra Zaïnal
Conception & Développement : Baudouin d'Aumeries
Co-Programmation & Développement : Marc-Olivier Méhu
Soutien technique & logistique : Manuel Goepfert

Contact : metmap@orbifly.com




SOURCES & CREDITS :

   NOAA